JST461 YBNA-YSSY
Flight info
| Callsign | JST461 |
|---|---|
| Flight time | 1h 3m |
| Altitude | 36000 |
| Route | BNA W494 IDNER H98 SANAD H91 IGDAM/N0449F370 H652 BOREE |
| Aircraft | A320/M-SDE3FGHIRWY/LB1 |
Departure
| Time | 2026-05-01 07:31 |
|---|---|
| Airport | Ballina Byron Gateway Airport (YBNA) |
Arrival
| Time | 2026-05-01 08:34 |
|---|---|
| Airport | Sydney Kingsford Smith International Airport (YSSY) |
| Time | Latitude | Longitude | Altitude | Speed | Heading |
|---|---|---|---|---|---|
| 2026-05-01 07:23 | -28.83685 | 153.55678 | 14 ft | 2 kts | 356° |
| 2026-05-01 07:23 | -28.83632 | 153.55701 | 14 ft | 1 kts | 5° |
| 2026-05-01 07:24 | -28.83617 | 153.55701 | 14 ft | 2 kts | 350° |
| 2026-05-01 07:24 | -28.83606 | 153.55696 | 16 ft | 1 kts | 341° |
| 2026-05-01 07:24 | -28.83593 | 153.55691 | 14 ft | 2 kts | 342° |
| 2026-05-01 07:24 | -28.83588 | 153.55690 | 14 ft | 1 kts | 343° |
| 2026-05-01 07:25 | -28.83586 | 153.55689 | 14 ft | 0 kts | 343° |
| 2026-05-01 07:25 | -28.83582 | 153.55688 | 14 ft | 1 kts | 343° |
| 2026-05-01 07:25 | -28.83574 | 153.55685 | 14 ft | 3 kts | 343° |
| 2026-05-01 07:25 | -28.83557 | 153.55679 | 14 ft | 0 kts | 343° |
| 2026-05-01 07:26 | -28.83529 | 153.55670 | 14 ft | 9 kts | 343° |
| 2026-05-01 07:26 | -28.83463 | 153.55654 | 15 ft | 10 kts | 8° |
| 2026-05-01 07:26 | -28.83430 | 153.55726 | 16 ft | 12 kts | 73° |
| 2026-05-01 07:26 | -28.83405 | 153.55827 | 15 ft | 14 kts | 75° |
| 2026-05-01 07:27 | -28.83376 | 153.55943 | 17 ft | 16 kts | 71° |
| 2026-05-01 07:27 | -28.83340 | 153.56073 | 15 ft | 18 kts | 72° |
| 2026-05-01 07:27 | -28.83307 | 153.56198 | 15 ft | 16 kts | 73° |
| 2026-05-01 07:27 | -28.83272 | 153.56329 | 16 ft | 18 kts | 73° |
| 2026-05-01 07:28 | -28.83234 | 153.56475 | 14 ft | 21 kts | 73° |
| 2026-05-01 07:28 | -28.83193 | 153.56636 | 14 ft | 21 kts | 74° |
| 2026-05-01 07:28 | -28.83154 | 153.56783 | 14 ft | 21 kts | 73° |
| 2026-05-01 07:28 | -28.83110 | 153.56946 | 15 ft | 20 kts | 73° |
| 2026-05-01 07:29 | -28.83082 | 153.57030 | 16 ft | 4 kts | 141° |
| 2026-05-01 07:29 | -28.83092 | 153.57010 | 17 ft | 4 kts | 253° |
| 2026-05-01 07:29 | -28.83092 | 153.57009 | 16 ft | 0 kts | 255° |
| 2026-05-01 07:29 | -28.83093 | 153.57006 | 16 ft | 0 kts | 254° |
| 2026-05-01 07:30 | -28.83098 | 153.56987 | 13 ft | 13 kts | 253° |
| 2026-05-01 07:30 | -28.83202 | 153.56597 | 14 ft | 90 kts | 253° |
| 2026-05-01 07:30 | -28.83442 | 153.55682 | 17 ft | 148 kts | 253° |
| 2026-05-01 07:30 | -28.83754 | 153.54487 | 413 ft | 160 kts | 247° |
| 2026-05-01 07:31 | -28.84074 | 153.53268 | 1042 ft | 160 kts | 249° |
| 2026-05-01 07:31 | -28.84708 | 153.49219 | 2161 ft | 203 kts | 263° |
| 2026-05-01 07:32 | -28.84932 | 153.45598 | 2750 ft | 253 kts | 264° |
| 2026-05-01 07:32 | -28.85058 | 153.43499 | 3181 ft | 274 kts | 265° |
| 2026-05-01 07:33 | -28.85323 | 153.39077 | 4848 ft | 284 kts | 265° |
| 2026-05-01 07:33 | -28.85462 | 153.36810 | 5681 ft | 289 kts | 265° |
| 2026-05-01 07:33 | -28.85750 | 153.32193 | 7341 ft | 295 kts | 265° |
| 2026-05-01 07:34 | -28.85897 | 153.29844 | 8136 ft | 298 kts | 265° |
| 2026-05-01 07:34 | -28.86193 | 153.25102 | 9698 ft | 305 kts | 265° |
| 2026-05-01 07:34 | -28.86348 | 153.22664 | 10313 ft | 316 kts | 265° |
| 2026-05-01 07:35 | -28.86515 | 153.20064 | 10490 ft | 339 kts | 265° |
| 2026-05-01 07:35 | -28.86689 | 153.17307 | 10855 ft | 353 kts | 265° |
| 2026-05-01 07:35 | -28.86863 | 153.14478 | 11477 ft | 358 kts | 265° |
| 2026-05-01 07:35 | -28.87037 | 153.11660 | 12147 ft | 361 kts | 265° |
| 2026-05-01 07:36 | -28.87443 | 153.08835 | 12844 ft | 362 kts | 252° |
| 2026-05-01 07:36 | -28.88420 | 153.06195 | 13544 ft | 362 kts | 238° |
| 2026-05-01 07:36 | -28.89910 | 153.03904 | 14208 ft | 362 kts | 225° |
| 2026-05-01 07:36 | -28.91837 | 153.02062 | 14804 ft | 362 kts | 211° |
| 2026-05-01 07:37 | -28.96250 | 152.99239 | 15990 ft | 365 kts | 207° |
| 2026-05-01 07:37 | -28.98457 | 152.97844 | 16568 ft | 368 kts | 207° |
| 2026-05-01 07:37 | -29.00705 | 152.96416 | 17153 ft | 370 kts | 207° |
| 2026-05-01 07:38 | -29.02966 | 152.94978 | 17737 ft | 373 kts | 207° |
| 2026-05-01 07:38 | -29.05244 | 152.93533 | 18330 ft | 376 kts | 207° |
| 2026-05-01 07:38 | -29.09852 | 152.90615 | 19426 ft | 381 kts | 208° |
| 2026-05-01 07:39 | -29.12171 | 152.89140 | 19966 ft | 383 kts | 208° |
| 2026-05-01 07:39 | -29.14507 | 152.87650 | 20517 ft | 386 kts | 208° |
| 2026-05-01 07:39 | -29.19225 | 152.84643 | 21593 ft | 390 kts | 208° |
| 2026-05-01 07:40 | -29.21602 | 152.83126 | 22126 ft | 392 kts | 208° |
| 2026-05-01 07:40 | -29.23969 | 152.81616 | 22609 ft | 395 kts | 208° |
| 2026-05-01 07:40 | -29.26377 | 152.80081 | 23103 ft | 398 kts | 208° |
| 2026-05-01 07:40 | -29.28808 | 152.78527 | 23595 ft | 400 kts | 208° |
| 2026-05-01 07:41 | -29.31248 | 152.76966 | 24028 ft | 403 kts | 208° |
| 2026-05-01 07:41 | -29.33706 | 152.75393 | 24440 ft | 405 kts | 209° |
| 2026-05-01 07:41 | -29.38653 | 152.72226 | 25236 ft | 409 kts | 209° |
| 2026-05-01 07:42 | -29.41147 | 152.70634 | 25617 ft | 411 kts | 209° |
| 2026-05-01 07:42 | -29.43655 | 152.69035 | 26005 ft | 413 kts | 209° |
| 2026-05-01 07:42 | -29.46167 | 152.67430 | 26401 ft | 414 kts | 209° |
| 2026-05-01 07:42 | -29.48687 | 152.65815 | 26782 ft | 416 kts | 209° |
| 2026-05-01 07:43 | -29.51214 | 152.64190 | 27176 ft | 417 kts | 209° |
| 2026-05-01 07:43 | -29.53751 | 152.62558 | 27548 ft | 419 kts | 209° |
| 2026-05-01 07:43 | -29.58857 | 152.59277 | 28283 ft | 422 kts | 209° |
| 2026-05-01 07:44 | -29.64008 | 152.55963 | 28975 ft | 426 kts | 209° |
| 2026-05-01 07:44 | -29.69171 | 152.52645 | 29679 ft | 430 kts | 209° |
| 2026-05-01 07:45 | -29.71816 | 152.50943 | 30030 ft | 431 kts | 210° |
| 2026-05-01 07:45 | -29.74399 | 152.49279 | 30437 ft | 430 kts | 210° |
| 2026-05-01 07:45 | -29.77004 | 152.47596 | 30872 ft | 428 kts | 210° |
| 2026-05-01 07:45 | -29.79596 | 152.45919 | 31283 ft | 427 kts | 210° |
| 2026-05-01 07:46 | -29.82182 | 152.44248 | 31686 ft | 425 kts | 210° |
| 2026-05-01 07:46 | -29.84762 | 152.42577 | 32082 ft | 425 kts | 210° |
| 2026-05-01 07:46 | -29.89903 | 152.39244 | 32884 ft | 423 kts | 210° |
| 2026-05-01 07:47 | -29.92467 | 152.37584 | 33301 ft | 422 kts | 210° |
| 2026-05-01 07:47 | -29.95023 | 152.35927 | 33724 ft | 420 kts | 210° |
| 2026-05-01 07:47 | -29.97571 | 152.34278 | 34140 ft | 419 kts | 210° |
| 2026-05-01 07:47 | -30.00112 | 152.32636 | 34524 ft | 418 kts | 210° |
| 2026-05-01 07:48 | -30.05178 | 152.29348 | 35161 ft | 417 kts | 210° |
| 2026-05-01 07:48 | -30.07705 | 152.27708 | 35443 ft | 417 kts | 210° |
| 2026-05-01 07:48 | -30.10235 | 152.26065 | 35721 ft | 417 kts | 211° |
| 2026-05-01 07:49 | -30.12760 | 152.24421 | 36003 ft | 417 kts | 211° |
| 2026-05-01 07:49 | -30.17814 | 152.21127 | 36337 ft | 419 kts | 211° |
| 2026-05-01 07:50 | -30.22942 | 152.17788 | 36355 ft | 425 kts | 211° |
| 2026-05-01 07:50 | -30.30688 | 152.12731 | 36360 ft | 431 kts | 211° |
| 2026-05-01 07:51 | -30.35983 | 152.09262 | 36360 ft | 442 kts | 211° |
| 2026-05-01 07:52 | -30.44026 | 152.03987 | 36360 ft | 446 kts | 211° |
| 2026-05-01 07:52 | -30.49437 | 152.00442 | 36357 ft | 446 kts | 211° |
| 2026-05-01 07:53 | -30.57509 | 151.95126 | 36368 ft | 447 kts | 211° |
| 2026-05-01 07:53 | -30.62931 | 151.91563 | 36360 ft | 447 kts | 211° |
| 2026-05-01 07:55 | -30.76481 | 151.82631 | 36378 ft | 449 kts | 211° |
| 2026-05-01 07:56 | -30.90040 | 151.73642 | 36375 ft | 449 kts | 211° |
| 2026-05-01 07:57 | -30.98204 | 151.68237 | 36386 ft | 450 kts | 211° |
| 2026-05-01 07:58 | -31.09078 | 151.61005 | 36384 ft | 450 kts | 211° |
| 2026-05-01 07:59 | -31.19975 | 151.53743 | 36378 ft | 451 kts | 211° |
| 2026-05-01 08:00 | -31.36331 | 151.42795 | 36384 ft | 451 kts | 211° |
| 2026-05-01 08:01 | -31.47898 | 151.37102 | 36385 ft | 453 kts | 202° |
| 2026-05-01 08:02 | -31.56739 | 151.33150 | 36377 ft | 453 kts | 202° |
| 2026-05-01 08:03 | -31.65590 | 151.29188 | 36373 ft | 454 kts | 202° |
| 2026-05-01 08:03 | -31.74469 | 151.25206 | 36378 ft | 455 kts | 202° |
| 2026-05-01 08:04 | -31.85304 | 151.20332 | 36363 ft | 455 kts | 202° |
| 2026-05-01 08:05 | -31.94182 | 151.16336 | 36362 ft | 456 kts | 202° |
| 2026-05-01 08:06 | -32.02939 | 151.12406 | 36339 ft | 437 kts | 202° |
| 2026-05-01 08:06 | -32.08611 | 151.09861 | 35970 ft | 435 kts | 202° |
| 2026-05-01 08:07 | -32.14274 | 151.07322 | 35499 ft | 435 kts | 202° |
| 2026-05-01 08:07 | -32.19930 | 151.04772 | 34337 ft | 440 kts | 202° |
| 2026-05-01 08:08 | -32.22782 | 151.03483 | 33850 ft | 435 kts | 202° |
| 2026-05-01 08:08 | -32.28396 | 151.00948 | 32852 ft | 428 kts | 202° |
| 2026-05-01 08:09 | -32.33923 | 150.98455 | 31867 ft | 422 kts | 201° |
| 2026-05-01 08:09 | -32.36662 | 150.97223 | 31362 ft | 419 kts | 202° |
| 2026-05-01 08:09 | -32.39381 | 150.95998 | 30879 ft | 417 kts | 201° |
| 2026-05-01 08:10 | -32.44784 | 150.93556 | 29863 ft | 412 kts | 202° |
| 2026-05-01 08:10 | -32.50268 | 150.91808 | 28888 ft | 408 kts | 185° |
| 2026-05-01 08:11 | -32.55859 | 150.92317 | 27934 ft | 405 kts | 172° |
| 2026-05-01 08:11 | -32.61412 | 150.93312 | 27008 ft | 402 kts | 172° |
| 2026-05-01 08:12 | -32.66931 | 150.94278 | 26117 ft | 400 kts | 172° |
| 2026-05-01 08:12 | -32.69685 | 150.94757 | 25672 ft | 400 kts | 172° |
| 2026-05-01 08:12 | -32.75194 | 150.95726 | 24788 ft | 399 kts | 172° |
| 2026-05-01 08:13 | -32.77941 | 150.96214 | 24341 ft | 400 kts | 172° |
| 2026-05-01 08:13 | -32.80692 | 150.96702 | 23881 ft | 400 kts | 172° |
| 2026-05-01 08:13 | -32.86191 | 150.97687 | 22901 ft | 397 kts | 172° |
| 2026-05-01 08:14 | -32.88920 | 150.98176 | 22435 ft | 396 kts | 171° |
| 2026-05-01 08:14 | -32.91642 | 150.98663 | 21944 ft | 394 kts | 171° |
| 2026-05-01 08:14 | -32.94352 | 150.99146 | 21463 ft | 393 kts | 171° |
| 2026-05-01 08:14 | -32.97050 | 150.99625 | 20979 ft | 391 kts | 171° |
| 2026-05-01 08:15 | -32.99711 | 151.00100 | 20493 ft | 390 kts | 171° |
| 2026-05-01 08:15 | -33.05047 | 151.01060 | 19545 ft | 386 kts | 171° |
| 2026-05-01 08:15 | -33.07675 | 151.01531 | 19118 ft | 382 kts | 171° |
| 2026-05-01 08:16 | -33.10300 | 151.02001 | 18734 ft | 377 kts | 171° |
| 2026-05-01 08:16 | -33.12887 | 151.02463 | 18227 ft | 374 kts | 171° |
| 2026-05-01 08:16 | -33.15454 | 151.02920 | 17691 ft | 372 kts | 171° |
| 2026-05-01 08:16 | -33.18018 | 151.03378 | 17124 ft | 372 kts | 171° |
| 2026-05-01 08:17 | -33.20569 | 151.03834 | 16598 ft | 370 kts | 171° |
| 2026-05-01 08:17 | -33.23103 | 151.04285 | 16103 ft | 368 kts | 171° |
| 2026-05-01 08:17 | -33.25625 | 151.04740 | 15642 ft | 364 kts | 170° |
| 2026-05-01 08:17 | -33.28131 | 151.05211 | 15154 ft | 363 kts | 169° |
| 2026-05-01 08:18 | -33.30585 | 151.05684 | 14698 ft | 360 kts | 169° |
| 2026-05-01 08:18 | -33.35520 | 151.06650 | 13723 ft | 356 kts | 169° |
| 2026-05-01 08:19 | -33.40378 | 151.07589 | 12811 ft | 350 kts | 169° |
| 2026-05-01 08:19 | -33.42773 | 151.08050 | 12369 ft | 347 kts | 170° |
| 2026-05-01 08:19 | -33.45149 | 151.08508 | 11923 ft | 344 kts | 169° |
| 2026-05-01 08:19 | -33.47503 | 151.08958 | 11483 ft | 342 kts | 169° |
| 2026-05-01 08:20 | -33.49814 | 151.09401 | 11049 ft | 341 kts | 169° |
| 2026-05-01 08:20 | -33.52159 | 151.09854 | 10602 ft | 339 kts | 169° |
| 2026-05-01 08:20 | -33.54459 | 151.10299 | 10447 ft | 329 kts | 169° |
| 2026-05-01 08:20 | -33.56661 | 151.10724 | 10330 ft | 318 kts | 169° |
| 2026-05-01 08:21 | -33.58817 | 151.11140 | 10171 ft | 309 kts | 169° |
| 2026-05-01 08:21 | -33.60934 | 151.11548 | 9861 ft | 306 kts | 169° |
| 2026-05-01 08:21 | -33.63028 | 151.11954 | 9523 ft | 304 kts | 169° |
| 2026-05-01 08:21 | -33.65106 | 151.12363 | 9181 ft | 302 kts | 169° |
| 2026-05-01 08:22 | -33.67171 | 151.12774 | 8854 ft | 300 kts | 169° |
| 2026-05-01 08:22 | -33.69212 | 151.13180 | 8512 ft | 298 kts | 169° |
| 2026-05-01 08:22 | -33.71252 | 151.13585 | 8233 ft | 295 kts | 169° |
| 2026-05-01 08:22 | -33.73264 | 151.13974 | 8001 ft | 291 kts | 169° |
| 2026-05-01 08:23 | -33.75252 | 151.14356 | 7812 ft | 289 kts | 169° |
| 2026-05-01 08:23 | -33.77210 | 151.14733 | 7650 ft | 288 kts | 169° |
| 2026-05-01 08:23 | -33.79184 | 151.15115 | 7461 ft | 287 kts | 169° |
| 2026-05-01 08:23 | -33.81168 | 151.15306 | 7300 ft | 287 kts | 181° |
| 2026-05-01 08:24 | -33.83138 | 151.14931 | 7120 ft | 287 kts | 192° |
| 2026-05-01 08:24 | -33.85079 | 151.14366 | 6955 ft | 287 kts | 193° |
| 2026-05-01 08:24 | -33.87002 | 151.13804 | 6787 ft | 285 kts | 193° |
| 2026-05-01 08:24 | -33.88929 | 151.13242 | 6612 ft | 284 kts | 192° |
| 2026-05-01 08:25 | -33.90819 | 151.12693 | 6435 ft | 284 kts | 192° |
| 2026-05-01 08:25 | -33.92709 | 151.12149 | 6280 ft | 284 kts | 192° |
| 2026-05-01 08:25 | -33.94636 | 151.11597 | 6118 ft | 283 kts | 192° |
| 2026-05-01 08:25 | -33.96549 | 151.11047 | 5963 ft | 283 kts | 192° |
| 2026-05-01 08:26 | -33.98444 | 151.10501 | 5775 ft | 282 kts | 192° |
| 2026-05-01 08:26 | -34.00346 | 151.09949 | 5473 ft | 280 kts | 192° |
| 2026-05-01 08:26 | -34.02235 | 151.09403 | 5251 ft | 279 kts | 193° |
| 2026-05-01 08:26 | -34.04138 | 151.08854 | 5027 ft | 278 kts | 192° |
| 2026-05-01 08:27 | -34.06002 | 151.08315 | 4803 ft | 278 kts | 193° |
| 2026-05-01 08:27 | -34.07901 | 151.07962 | 4572 ft | 276 kts | 179° |
| 2026-05-01 08:27 | -34.09790 | 151.08186 | 4341 ft | 270 kts | 165° |
| 2026-05-01 08:27 | -34.11612 | 151.08665 | 4118 ft | 266 kts | 166° |
| 2026-05-01 08:28 | -34.13413 | 151.09135 | 3896 ft | 261 kts | 165° |
| 2026-05-01 08:28 | -34.15179 | 151.09591 | 3675 ft | 256 kts | 165° |
| 2026-05-01 08:28 | -34.16894 | 151.10032 | 3521 ft | 248 kts | 164° |
| 2026-05-01 08:28 | -34.18406 | 151.10860 | 3372 ft | 233 kts | 135° |
| 2026-05-01 08:29 | -34.19273 | 151.12435 | 3225 ft | 225 kts | 101° |
| 2026-05-01 08:29 | -34.19268 | 151.14273 | 3106 ft | 219 kts | 71° |
| 2026-05-01 08:29 | -34.18714 | 151.15966 | 3023 ft | 219 kts | 64° |
| 2026-05-01 08:29 | -34.17908 | 151.17512 | 3023 ft | 219 kts | 41° |
| 2026-05-01 08:30 | -34.16567 | 151.18343 | 3021 ft | 220 kts | 18° |
| 2026-05-01 08:30 | -34.15071 | 151.18771 | 3021 ft | 221 kts | 13° |
| 2026-05-01 08:30 | -34.13561 | 151.19140 | 3020 ft | 222 kts | 13° |
| 2026-05-01 08:30 | -34.12045 | 151.19501 | 3006 ft | 223 kts | 13° |
| 2026-05-01 08:31 | -34.10530 | 151.19860 | 2838 ft | 222 kts | 13° |
| 2026-05-01 08:31 | -34.09017 | 151.20210 | 2663 ft | 221 kts | 13° |
| 2026-05-01 08:31 | -34.07511 | 151.20558 | 2446 ft | 219 kts | 12° |
| 2026-05-01 08:31 | -34.05989 | 151.20601 | 1985 ft | 222 kts | 351° |
| 2026-05-01 08:32 | -34.04506 | 151.20190 | 1639 ft | 213 kts | 350° |
| 2026-05-01 08:32 | -34.03116 | 151.19807 | 1350 ft | 198 kts | 351° |
| 2026-05-01 08:32 | -34.01837 | 151.19469 | 1121 ft | 179 kts | 351° |
| 2026-05-01 08:32 | -34.00694 | 151.19171 | 906 ft | 157 kts | 351° |
| 2026-05-01 08:33 | -33.99669 | 151.18904 | 696 ft | 145 kts | 351° |
| 2026-05-01 08:33 | -33.98693 | 151.18653 | 502 ft | 141 kts | 349° |
| 2026-05-01 08:33 | -33.97725 | 151.18398 | 329 ft | 143 kts | 349° |
| 2026-05-01 08:33 | -33.96758 | 151.18146 | 151 ft | 141 kts | 349° |
| 2026-05-01 08:34 | -33.95808 | 151.17903 | 31 ft | 130 kts | 348° |
| 2026-05-01 08:34 | -33.95094 | 151.17722 | 27 ft | 80 kts | 348° |
| 2026-05-01 08:34 | -33.94772 | 151.17647 | 29 ft | 35 kts | 354° |
| 2026-05-01 08:34 | -33.94557 | 151.17668 | 30 ft | 30 kts | 13° |
| 2026-05-01 08:35 | -33.94416 | 151.17722 | 30 ft | 17 kts | 18° |
| 2026-05-01 08:35 | -33.94330 | 151.17735 | 30 ft | 11 kts | 346° |
| 2026-05-01 08:35 | -33.94309 | 151.17728 | 30 ft | 0 kts | 345° |
| 2026-05-01 08:36 | -33.94280 | 151.17719 | 29 ft | 7 kts | 345° |
| 2026-05-01 08:36 | -33.94202 | 151.17694 | 29 ft | 16 kts | 347° |
| 2026-05-01 08:36 | -33.94074 | 151.17658 | 28 ft | 21 kts | 346° |
| 2026-05-01 08:37 | -33.93926 | 151.17616 | 29 ft | 22 kts | 347° |
| 2026-05-01 08:37 | -33.93852 | 151.17719 | 29 ft | 19 kts | 69° |
| 2026-05-01 08:37 | -33.93745 | 151.17784 | 30 ft | 18 kts | 15° |
| 2026-05-01 08:37 | -33.93613 | 151.17818 | 30 ft | 21 kts | 12° |
| 2026-05-01 08:38 | -33.93514 | 151.17840 | 30 ft | 6 kts | 8° |
| 2026-05-01 08:38 | -33.93491 | 151.17816 | 30 ft | 6 kts | 278° |
| 2026-05-01 08:38 | -33.93485 | 151.17772 | 30 ft | 4 kts | 280° |
| 2026-05-01 08:38 | -33.93485 | 151.17771 | 30 ft | 0 kts | 280° |